Time;durP1;ratioP1;P1;durP2;ratioP2;P2;SDS_P1;SDS_P2;PMS_P1;PMS_P2;Temp;Humidity;BMP_temperature;BMP_pressure;BME280_temperature;BME280_humidity;BME280_pressure;Samples;Min_cycle;Max_cycle;Signal;HPM_P1;HPM_P2
2024/03/11 00:02:11;;;;;;;0.25;0.25;;;;;;;11.21;63.08;99935.63;5075133;28;20053;-76
2024/03/11 00:04:39;;;;;;;0.20;0.20;;;;;;;11.20;63.18;99941.00;5075894;28;20029;-77
2024/03/11 00:07:08;;;;;;;0.50;0.32;;;;;;;11.18;62.58;99943.72;5075540;28;20036;-76
2024/03/11 00:09:41;;;;;;;0.28;0.28;;;;;;;11.16;62.93;99934.94;5075073;28;20108;-76
2024/03/11 00:12:08;;;;;;;0.10;0.10;;;;;;;11.15;62.77;99927.91;5075785;28;20071;-77
2024/03/11 00:14:40;;;;;;;1.27;1.23;;;;;;;11.16;62.82;99933.16;5076203;28;20033;-78
2024/03/11 00:17:08;;;;;;;2.58;2.33;;;;;;;11.13;63.46;99927.13;5082535;28;20036;-77
2024/03/11 00:19:35;;;;;;;1.38;1.27;;;;;;;11.12;62.75;99918.28;5087777;28;20024;-78
2024/03/11 00:22:01;;;;;;;1.33;1.23;;;;;;;11.11;63.43;99921.00;5076120;28;20046;-80
2024/03/11 00:24:29;;;;;;;0.10;0.10;;;;;;;11.10;63.50;99916.59;5077522;28;20100;-80
2024/03/11 00:26:56;;;;;;;0.10;0.10;;;;;;;11.10;63.53;99916.59;5081912;28;20092;-79
2024/03/11 00:29:22;;;;;;;0.20;0.20;;;;;;;11.10;63.36;99927.22;5086079;28;20424;-79
2024/03/11 00:31:52;;;;;;;0.10;0.10;;;;;;;11.09;63.39;99923.72;5079748;28;20455;-79
2024/03/11 00:34:18;;;;;;;1.27;0.82;;;;;;;11.11;63.01;99942.19;5076518;28;20024;-79
2024/03/11 00:36:44;;;;;;;0.10;0.10;;;;;;;11.10;63.32;99943.13;5075389;28;20055;-80
2024/03/11 00:39:15;;;;;;;0.40;0.40;;;;;;;11.12;63.55;99942.13;5079281;28;20037;-80
2024/03/11 00:41:41;;;;;;;0.32;0.32;;;;;;;11.13;63.00;99938.56;5081367;28;20086;-81
2024/03/11 00:44:08;;;;;;;1.85;0.57;;;;;;;11.12;63.35;99938.63;5083594;28;20031;-78
2024/03/11 00:46:35;;;;;;;0.20;0.20;;;;;;;11.14;63.11;99942.06;5083561;28;20032;-80
2024/03/11 00:49:02;;;;;;;1.10;1.10;;;;;;;11.14;63.29;99944.72;5086199;28;20058;-80
2024/03/11 00:51:29;;;;;;;0.30;0.30;;;;;;;11.13;63.10;99941.22;5084976;28;20032;-80
2024/03/11 00:53:56;;;;;;;1.08;1.00;;;;;;;11.13;62.90;99940.38;5077630;28;20454;-79
2024/03/11 00:56:23;;;;;;;0.10;0.10;;;;;;;11.10;63.58;99941.34;5076847;28;20399;-80
2024/03/11 00:58:49;;;;;;;1.65;0.70;;;;;;;11.09;62.90;99936.97;5076638;28;20145;-80
2024/03/11 01:01:16;;;;;;;0.03;0.03;;;;;;;11.07;63.37;99935.28;5075729;28;20032;-80
2024/03/11 01:03:43;;;;;;;1.65;1.58;;;;;;;11.04;63.30;99946.00;5076548;28;20089;-79
2024/03/11 01:06:10;;;;;;;1.98;1.65;;;;;;;11.02;63.01;99932.78;5075959;28;20028;-80
2024/03/11 01:08:38;;;;;;;1.55;1.17;;;;;;;10.99;63.74;99944.38;5076544;28;20033;-78
2024/03/11 01:11:04;;;;;;;0.15;0.15;;;;;;;10.97;63.46;99946.22;5076431;28;20119;-78
2024/03/11 01:13:30;;;;;;;0.43;0.43;;;;;;;10.96;63.20;99949.78;5074312;28;20040;-79
2024/03/11 01:15:57;;;;;;;1.27;1.27;;;;;;;10.96;63.67;99949.78;5071947;28;20547;-77
2024/03/11 01:18:24;;;;;;;0.45;0.45;;;;;;;10.96;63.24;99955.06;5082603;28;20021;-79
2024/03/11 01:20:51;;;;;;;3.83;1.13;;;;;;;10.96;63.80;99947.13;5084280;28;20499;-77
2024/03/11 01:23:20;;;;;;;0.35;0.35;;;;;;;10.97;63.53;99948.84;5083690;28;20035;-78
2024/03/11 01:25:46;;;;;;;0.68;0.68;;;;;;;10.97;63.47;99956.81;5090063;28;20036;-78
2024/03/11 01:28:12;;;;;;;0.10;0.10;;;;;;;10.95;63.94;99948.06;5089256;28;20044;-78
2024/03/11 01:30:39;;;;;;;0.13;0.13;;;;;;;10.93;63.64;99949.00;5084348;28;20529;-79
2024/03/11 01:33:06;;;;;;;0.08;0.08;;;;;;;10.90;64.12;99950.00;5090951;28;20059;-78
2024/03/11 01:35:34;;;;;;;1.77;1.67;;;;;;;10.87;64.37;99949.25;5101095;28;20054;-77
2024/03/11 01:38:00;;;;;;;0.10;0.10;;;;;;;10.83;64.17;99945.84;5096727;28;20775;-80
2024/03/11 01:40:27;;;;;;;0.95;0.95;;;;;;;10.83;63.75;99948.50;5076429;28;20032;-77
2024/03/11 01:42:54;;;;;;;0.10;0.10;;;;;;;10.83;64.07;99953.81;5080450;28;20028;-78
2024/03/11 01:45:23;;;;;;;0.95;0.95;;;;;;;10.85;63.73;99957.25;5077450;28;20060;-77
2024/03/11 01:47:52;;;;;;;0.25;0.25;;;;;;;10.83;63.90;99951.16;5076392;28;20032;-77
2024/03/11 01:50:18;;;;;;;0.30;0.30;;;;;;;10.81;64.15;99947.69;5073964;28;20123;-77
2024/03/11 01:52:56;;;;;;;0.10;0.10;;;;;;;10.82;63.96;99946.78;5073551;28;20510;-78
2024/03/11 01:55:25;;;;;;;0.10;0.10;;;;;;;10.82;63.93;99941.47;5076733;28;20390;-78
2024/03/11 01:57:54;;;;;;;0.13;0.13;;;;;;;10.79;64.53;99937.16;5073835;28;20050;-78
2024/03/11 02:00:22;;;;;;;1.48;1.48;;;;;;;10.76;64.52;99939.88;5074692;28;20032;-79
2024/03/11 02:02:49;;;;;;;0.47;0.47;;;;;;;10.77;64.24;99930.19;5076012;28;20502;-79
2024/03/11 02:05:15;;;;;;;0.82;0.82;;;;;;;10.66;64.84;99931.41;5076882;28;20122;-76
2024/03/11 02:07:44;;;;;;;0.10;0.10;;;;;;;10.65;64.57;99940.28;5073986;28;20033;-79
2024/03/11 02:10:14;;;;;;;0.68;0.68;;;;;;;10.61;64.50;99938.66;5075697;28;20040;-77
2024/03/11 02:12:46;;;;;;;1.50;1.40;;;;;;;10.61;64.70;99943.94;5076889;28;20035;-81
2024/03/11 02:15:14;;;;;;;0.22;0.22;;;;;;;10.61;64.86;99943.09;5077422;28;20035;-80
2024/03/11 02:17:42;;;;;;;1.55;0.80;;;;;;;10.60;65.04;99942.19;5076045;28;20028;-79
2024/03/11 02:20:17;;;;;;;0.10;0.10;;;;;;;10.59;64.58;99943.16;5076317;28;20044;-80
2024/03/11 02:25:22;;;;;;;1.77;0.85;;;;;;;10.56;64.96;99948.53;5124662;27;20442;-80
2024/03/11 02:27:50;;;;;;;0.10;0.10;;;;;;;10.55;65.12;99946.81;5109912;28;20085;-80
2024/03/11 02:30:16;;;;;;;0.93;0.93;;;;;;;10.54;65.07;99942.41;5089877;28;20165;-80
2024/03/11 02:32:44;;;;;;;0.20;0.20;;;;;;;10.52;64.96;99941.63;5091639;28;20053;-81
2024/03/11 02:35:11;;;;;;;0.28;0.28;;;;;;;10.51;65.41;99942.53;5091357;28;20495;-81
2024/03/11 02:37:38;;;;;;;2.38;0.75;;;;;;;10.48;65.57;99938.22;5093592;28;20028;-81
2024/03/11 02:40:08;;;;;;;0.80;0.80;;;;;;;10.48;65.11;99943.50;5093836;28;20062;-80
2024/03/11 02:42:34;;;;;;;0.45;0.45;;;;;;;10.46;65.48;99939.19;5105496;28;20040;-79
2024/03/11 02:45:02;;;;;;;0.73;0.73;;;;;;;10.46;65.41;99940.03;5115551;28;20090;-79
2024/03/11 02:47:28;;;;;;;0.70;0.70;;;;;;;10.47;65.33;99940.91;5100306;28;20035;-79
2024/03/11 02:49:54;;;;;;;0.25;0.25;;;;;;;10.47;65.35;99940.91;5103515;28;20028;-79
2024/03/11 02:52:21;;;;;;;1.38;0.50;;;;;;;10.47;65.39;99947.06;5109765;28;20031;-77
2024/03/11 02:54:50;;;;;;;2.60;2.47;;;;;;;10.48;64.85;99947.91;5112601;28;20020;-79
2024/03/11 02:57:18;;;;;;;0.45;0.45;;;;;;;10.51;65.19;99963.72;5106651;28;20069;-80
2024/03/11 02:59:44;;;;;;;0.60;0.60;;;;;;;10.50;65.11;99961.97;5109015;28;20067;-79
2024/03/11 03:02:11;;;;;;;0.60;0.60;;;;;;;10.51;65.42;99953.13;5107585;28;20039;-80
2024/03/11 03:04:39;;;;;;;0.10;0.10;;;;;;;10.52;65.50;99965.47;5108339;28;20059;-80
2024/03/11 03:07:08;;;;;;;0.45;0.45;;;;;;;10.54;65.08;99960.94;5110353;28;20543;-79
2024/03/11 03:09:36;;;;;;;0.00;0.00;;;;;;;10.54;64.86;99952.16;5106934;28;20169;-81
2024/03/11 03:12:03;;;;;;;0.88;0.88;;;;;;;10.54;64.99;99965.41;5115111;28;20024;-78
2024/03/11 03:14:30;;;;;;;2.03;1.85;;;;;;;10.55;64.89;99965.34;5121808;28;20024;-78
2024/03/11 03:16:57;;;;;;;0.60;0.60;;;;;;;10.55;64.69;99968.00;5104896;28;20027;-80
2024/03/11 03:19:24;;;;;;;0.30;0.30;;;;;;;10.55;64.89;99970.63;5101821;28;20039;-79
2024/03/11 03:21:50;;;;;;;1.50;1.15;;;;;;;10.56;64.97;99971.53;5093949;28;20461;-80
2024/03/11 03:24:16;;;;;;;0.15;0.15;;;;;;;10.56;65.17;99967.06;5091221;28;20032;-79
2024/03/11 03:26:43;;;;;;;1.52;1.42;;;;;;;10.57;65.30;99966.16;5093219;28;20411;-80
2024/03/11 03:29:11;;;;;;;0.10;0.10;;;;;;;10.58;65.30;99962.59;5098563;28;20027;-80
2024/03/11 03:31:37;;;;;;;3.25;1.58;;;;;;;10.57;65.01;99966.16;5098406;28;20032;-80
2024/03/11 03:34:04;;;;;;;2.45;0.40;;;;;;;10.56;65.00;99966.22;5106563;28;20052;-76
2024/03/11 03:36:31;;;;;;;0.20;0.20;;;;;;;10.55;65.14;99965.34;5099457;28;20039;-80
2024/03/11 03:38:57;;;;;;;1.05;1.02;;;;;;;10.54;65.11;99960.94;5092127;28;20057;-78
2024/03/11 03:41:23;;;;;;;0.88;0.68;;;;;;;10.54;65.12;99958.31;5097015;28;20036;-78
2024/03/11 03:43:49;;;;;;;0.10;0.10;;;;;;;10.54;65.41;99963.59;5094727;28;20040;-77
2024/03/11 03:46:18;;;;;;;0.10;0.10;;;;;;;10.53;65.31;99967.19;5091535;28;20042;-79
2024/03/11 03:48:46;;;;;;;0.17;0.17;;;;;;;10.57;65.10;99965.31;5085851;28;20036;-79
2024/03/11 03:51:12;;;;;;;0.30;0.30;;;;;;;10.56;65.21;99953.84;5084355;28;20024;-78
2024/03/11 03:53:39;;;;;;;0.20;0.20;;;;;;;10.56;64.97;99956.47;5079636;28;20024;-79
2024/03/11 03:56:05;;;;;;;0.13;0.13;;;;;;;10.56;65.26;99956.47;5080925;28;20040;-78
2024/03/11 03:58:31;;;;;;;0.10;0.10;;;;;;;10.58;64.66;99956.41;5073232;28;20111;-80
2024/03/11 04:00:59;;;;;;;0.20;0.20;;;;;;;10.57;65.22;99952.91;5068519;28;20075;-79
2024/03/11 04:03:27;;;;;;;0.10;0.10;;;;;;;10.59;65.04;99961.69;5072412;28;20037;-79
2024/03/11 04:05:53;;;;;;;1.50;1.40;;;;;;;10.60;64.92;99960.75;5072705;28;20402;-79
2024/03/11 04:08:20;;;;;;;0.10;0.10;;;;;;;10.60;64.82;99967.84;5077476;28;20035;-81
2024/03/11 04:10:47;;;;;;;0.28;0.25;;;;;;;10.59;65.04;99968.75;5077973;28;20036;-79
2024/03/11 04:13:14;;;;;;;0.75;0.73;;;;;;;10.59;65.20;99960.81;5100179;28;20068;-77
2024/03/11 04:15:42;;;;;;;2.88;2.63;;;;;;;10.57;65.08;99960.88;5086682;28;20021;-80
2024/03/11 04:18:10;;;;;;;0.22;0.22;;;;;;;10.55;65.32;99970.63;5075491;28;20043;-80
2024/03/11 04:20:37;;;;;;;2.28;2.17;;;;;;;10.53;65.17;99961.91;5077216;28;20445;-81
2024/03/11 04:23:07;;;;;;;0.03;0.03;;;;;;;10.50;65.73;99969.94;5081205;28;20036;-80
2024/03/11 04:25:38;;;;;;;0.10;0.10;;;;;;;10.44;65.87;99967.50;5081656;28;20033;-78
2024/03/11 04:28:06;;;;;;;1.13;1.10;;;;;;;10.42;65.63;99964.00;5073357;28;20029;-80
2024/03/11 04:30:37;;;;;;;0.63;0.63;;;;;;;10.35;65.75;99969.50;5074430;28;20035;-80
2024/03/11 04:33:03;;;;;;;1.63;1.52;;;;;;;10.33;65.85;99973.97;5082457;28;20540;-79
2024/03/11 04:38:08;;;;;;;0.08;0.08;;;;;;;10.31;65.95;99967.88;5118870;27;20142;-81
2024/03/11 04:40:37;;;;;;;0.85;0.85;;;;;;;10.29;66.46;99963.53;5071048;28;20048;-81
2024/03/11 04:43:04;;;;;;;0.10;0.10;;;;;;;10.25;66.75;99973.34;5057435;28;20044;-79
2024/03/11 04:45:31;;;;;;;0.30;0.30;;;;;;;10.32;66.47;99964.31;5052446;28;20025;-80
2024/03/11 04:47:58;;;;;;;0.10;0.10;;;;;;;10.36;65.72;99968.59;5068536;28;20056;-80
2024/03/11 04:50:26;;;;;;;1.33;1.30;;;;;;;10.38;66.19;99973.88;5067207;28;20059;-80
2024/03/11 04:52:58;;;;;;;0.10;0.10;;;;;;;10.40;66.29;99963.22;5062759;28;20407;-80
2024/03/11 04:55:26;;;;;;;1.00;1.00;;;;;;;10.40;65.79;99971.16;5056896;28;20035;-79
2024/03/11 04:57:53;;;;;;;0.10;0.10;;;;;;;10.34;66.55;99962.47;5070685;28;20032;-78
2024/03/11 05:00:26;;;;;;;1.88;1.20;;;;;;;10.34;66.31;99962.47;5085168;28;20032;-77
2024/03/11 05:02:53;;;;;;;0.10;0.10;;;;;;;10.34;66.36;99964.25;5060722;28;20029;-78
2024/03/11 05:05:20;;;;;;;0.85;0.85;;;;;;;10.26;67.54;99963.66;5063070;28;20039;-79
2024/03/11 05:07:46;;;;;;;2.15;0.82;;;;;;;10.31;66.47;99967.88;5058830;28;20053;-78
2024/03/11 05:10:12;;;;;;;1.98;0.82;;;;;;;10.30;66.65;99970.56;5056992;28;20029;-79
2024/03/11 05:12:39;;;;;;;0.10;0.10;;;;;;;10.29;66.71;99969.72;5057938;28;20036;-80
2024/03/11 05:15:06;;;;;;;0.10;0.10;;;;;;;10.31;66.40;99973.16;5061466;28;20499;-80
2024/03/11 05:17:32;;;;;;;1.80;1.60;;;;;;;10.30;66.96;99987.31;5055813;28;20095;-80
2024/03/11 05:19:59;;;;;;;1.48;0.93;;;;;;;10.31;67.21;99980.25;5063283;28;20404;-80
2024/03/11 05:22:25;;;;;;;0.10;0.10;;;;;;;10.32;67.11;99979.34;5056228;28;20033;-80
2024/03/11 05:24:51;;;;;;;0.20;0.20;;;;;;;10.33;66.56;99987.22;5066834;28;20035;-79
2024/03/11 05:27:18;;;;;;;1.95;1.00;;;;;;;10.34;66.76;99988.97;5061997;28;20026;-80
2024/03/11 05:29:44;;;;;;;0.40;0.40;;;;;;;10.35;67.04;99993.34;5051887;28;20029;-79
2024/03/11 05:32:10;;;;;;;0.75;0.75;;;;;;;10.33;67.12;99995.16;5056726;28;20520;-78
2024/03/11 05:34:36;;;;;;;0.70;0.70;;;;;;;10.33;66.93;100004.88;5061126;28;20588;-78
2024/03/11 05:37:06;;;;;;;0.10;0.10;;;;;;;10.33;67.26;100000.47;5055963;28;20029;-79
2024/03/11 05:39:33;;;;;;;0.80;0.80;;;;;;;10.34;67.66;100010.16;5065658;28;20435;-78
2024/03/11 05:42:00;;;;;;;0.20;0.20;;;;;;;10.34;67.51;100006.59;5060561;28;20033;-77
2024/03/11 05:44:26;;;;;;;0.77;0.77;;;;;;;10.34;67.66;100015.44;5059808;28;20017;-76
2024/03/11 05:46:52;;;;;;;0.43;0.43;;;;;;;10.35;67.27;100019.81;5063018;28;20480;-77
2024/03/11 05:49:19;;;;;;;0.17;0.17;;;;;;;10.36;67.92;100024.22;5055428;28;20406;-77
2024/03/11 05:51:45;;;;;;;0.68;0.68;;;;;;;10.38;67.63;100025.94;5051329;28;20035;-79
2024/03/11 05:54:17;;;;;;;0.13;0.13;;;;;;;10.38;67.95;100026.84;5043030;28;20048;-78
2024/03/11 05:56:53;;;;;;;0.10;0.10;;;;;;;10.40;67.64;100024.97;5042338;28;20032;-80
2024/03/11 05:59:23;;;;;;;0.10;0.10;;;;;;;10.41;67.46;100031.16;5038662;28;20026;-78
2024/03/11 06:01:50;;;;;;;0.20;0.20;;;;;;;10.42;67.93;100032.88;5040817;28;20065;-80
2024/03/11 06:04:17;;;;;;;0.30;0.30;;;;;;;10.42;67.87;100043.47;5047723;28;20029;-77
2024/03/11 06:06:45;;;;;;;0.10;0.10;;;;;;;10.43;67.75;100046.09;5051227;28;20036;-78
2024/03/11 06:09:16;;;;;;;0.10;0.10;;;;;;;10.46;67.88;100045.13;5051253;28;20033;-77
2024/03/11 06:11:44;;;;;;;0.10;0.10;;;;;;;10.44;67.79;100047.81;5058917;28;20025;-79
2024/03/11 06:14:12;;;;;;;0.10;0.10;;;;;;;10.44;67.86;100049.59;5058626;28;20048;-77
2024/03/11 06:16:39;;;;;;;0.20;0.20;;;;;;;10.44;67.78;100058.41;5043615;28;20025;-80
2024/03/11 06:19:07;;;;;;;0.10;0.10;;;;;;;10.46;67.81;100061.00;5043568;28;20057;-79
2024/03/11 06:21:34;;;;;;;0.20;0.20;;;;;;;10.44;67.80;100069.00;5037593;28;20025;-79
2024/03/11 06:24:01;;;;;;;2.67;1.75;;;;;;;10.45;67.88;100073.38;5050498;28;20618;-78
2024/03/11 06:26:28;;;;;;;0.10;0.10;;;;;;;10.45;67.87;100068.06;5053725;28;20150;-78
2024/03/11 06:28:56;;;;;;;0.10;0.10;;;;;;;10.45;68.14;100061.91;5054901;28;20036;-79
2024/03/11 06:31:24;;;;;;;0.10;0.10;;;;;;;10.44;67.72;100068.13;5053401;28;20112;-78
2024/03/11 06:33:50;;;;;;;0.28;0.28;;;;;;;10.43;68.11;100072.56;5048688;28;20463;-77
2024/03/11 06:36:17;;;;;;;0.30;0.30;;;;;;;10.42;68.44;100075.25;5044686;28;20092;-77
2024/03/11 06:38:45;;;;;;;0.10;0.10;;;;;;;10.41;67.73;100073.53;5042210;28;20106;-78
2024/03/11 06:41:11;;;;;;;0.90;0.90;;;;;;;10.41;68.09;100084.13;5045633;28;20024;-78
2024/03/11 06:43:38;;;;;;;0.40;0.40;;;;;;;10.41;68.11;100082.34;5043946;28;20155;-78
2024/03/11 06:46:05;;;;;;;0.75;0.75;;;;;;;10.42;68.26;100080.53;5037810;28;20025;-78
2024/03/11 06:48:31;;;;;;;0.73;0.73;;;;;;;10.42;68.22;100085.84;5044471;28;20034;-78
2024/03/11 06:50:57;;;;;;;0.40;0.40;;;;;;;10.44;68.16;100086.66;5056928;28;20528;-79
2024/03/11 06:53:23;;;;;;;0.10;0.10;;;;;;;10.43;68.08;100085.81;5046486;28;20096;-81
2024/03/11 06:55:49;;;;;;;0.32;0.32;;;;;;;10.44;68.76;100090.19;5043267;28;20079;-78
2024/03/11 06:58:16;;;;;;;0.10;0.10;;;;;;;10.45;68.21;100091.03;5048933;28;20112;-80
2024/03/11 07:00:42;;;;;;;0.20;0.20;;;;;;;10.44;68.46;100094.59;5047312;28;20032;-79
2024/03/11 07:03:08;;;;;;;0.52;0.52;;;;;;;10.46;68.50;100098.09;5047614;28;20029;-81
2024/03/11 07:05:35;;;;;;;0.17;0.17;;;;;;;10.48;68.89;100098.88;5035368;28;20029;-82
2024/03/11 07:08:06;;;;;;;0.10;0.10;;;;;;;10.48;68.91;100102.41;5042576;28;20029;-80
2024/03/11 07:10:32;;;;;;;0.10;0.10;;;;;;;10.49;68.79;100109.44;5035097;28;20025;-81
2024/03/11 07:12:59;;;;;;;0.25;0.25;;;;;;;10.50;68.80;100112.97;5050387;28;20132;-79
2024/03/11 07:15:25;;;;;;;0.30;0.30;;;;;;;10.50;68.85;100107.66;5053070;28;20036;-79
2024/03/11 07:17:52;;;;;;;1.02;0.70;;;;;;;10.50;69.21;100112.97;5040741;28;20094;-79
2024/03/11 07:20:18;;;;;;;2.30;1.25;;;;;;;10.50;69.31;100110.31;5037794;28;20026;-78
2024/03/11 07:22:45;;;;;;;2.45;1.65;;;;;;;10.49;69.30;100109.44;5037117;28;20060;-82
2024/03/11 07:25:15;;;;;;;0.10;0.10;;;;;;;10.50;69.30;100120.91;5029129;28;20409;-82
2024/03/11 07:27:42;;;;;;;0.40;0.40;;;;;;;10.51;69.85;100122.63;5033802;28;20450;-81
2024/03/11 07:30:10;;;;;;;0.75;0.75;;;;;;;10.52;69.67;100124.38;5048915;28;20082;-80
2024/03/11 07:32:37;;;;;;;0.20;0.20;;;;;;;10.52;69.60;100125.22;5047977;28;20037;-81
2024/03/11 07:35:05;;;;;;;1.00;1.00;;;;;;;10.51;69.64;100123.50;5046039;28;20061;-81
2024/03/11 07:37:37;;;;;;;0.43;0.43;;;;;;;10.52;69.64;100125.22;5059057;28;20044;-80
2024/03/11 07:40:06;;;;;;;0.70;0.70;;;;;;;10.55;69.95;100132.22;5053372;28;20028;-79
2024/03/11 07:42:34;;;;;;;6.57;2.80;;;;;;;10.55;70.28;100128.72;5054842;28;20048;-80
2024/03/11 07:45:02;;;;;;;4.78;3.22;;;;;;;10.55;70.03;100126.91;5057960;28;20083;-81
2024/03/11 07:47:31;;;;;;;2.25;2.15;;;;;;;10.57;70.73;100133.03;5060180;28;20035;-82
2024/03/11 07:49:58;;;;;;;3.00;2.80;;;;;;;10.54;69.82;100142.88;5055867;28;20052;-82
2024/03/11 07:52:24;;;;;;;4.82;2.08;;;;;;;10.51;70.20;100141.19;5060605;28;20095;-80
2024/03/11 07:54:50;;;;;;;1.55;1.48;;;;;;;10.51;70.23;100138.53;5052363;28;20130;-81
2024/03/11 07:57:16;;;;;;;0.20;0.20;;;;;;;10.50;70.28;100142.09;5059286;28;20051;-80
2024/03/11 07:59:44;;;;;;;1.00;1.00;;;;;;;10.50;70.35;100144.75;5055775;28;20064;-81
2024/03/11 08:02:10;;;;;;;0.85;0.85;;;;;;;10.50;70.32;100142.09;5054938;28;20029;-81
2024/03/11 08:04:36;;;;;;;9.73;1.75;;;;;;;10.51;70.45;100151.78;5062140;28;20192;-80
2024/03/11 08:07:03;;;;;;;1.65;1.55;;;;;;;10.52;70.62;100150.88;5046167;28;20052;-79
2024/03/11 08:09:30;;;;;;;0.10;0.10;;;;;;;10.53;70.15;100157.91;5059215;28;20033;-80
2024/03/11 08:11:57;;;;;;;0.10;0.10;;;;;;;10.55;70.28;100150.75;5058111;28;20048;-79
2024/03/11 08:14:23;;;;;;;0.10;0.10;;;;;;;10.56;70.73;100155.16;5058025;28;20024;-78
2024/03/11 08:16:50;;;;;;;0.10;0.10;;;;;;;10.58;70.92;100161.28;5050049;28;20471;-80
2024/03/11 08:19:17;;;;;;;0.10;0.10;;;;;;;10.60;70.57;100163.88;5058235;28;20148;-80
2024/03/11 08:21:43;;;;;;;0.30;0.30;;;;;;;10.59;71.20;100168.31;5063149;28;20040;-78
2024/03/11 08:24:11;;;;;;;0.88;0.82;;;;;;;10.60;70.60;100164.72;5062868;28;20036;-78
2024/03/11 08:26:40;;;;;;;0.98;0.60;;;;;;;10.62;70.32;100164.69;5050829;28;20492;-79
2024/03/11 08:29:07;;;;;;;0.50;0.50;;;;;;;10.64;70.43;100161.09;5052831;28;20025;-78
2024/03/11 08:31:33;;;;;;;0.43;0.43;;;;;;;10.63;71.23;100159.34;5044136;28;20484;-77
2024/03/11 08:34:00;;;;;;;2.75;1.35;;;;;;;10.66;70.67;100169.81;5055080;28;20508;-79
2024/03/11 08:36:27;;;;;;;2.50;2.30;;;;;;;10.70;70.33;100175.06;5045498;28;20056;-77
2024/03/11 08:38:54;;;;;;;1.88;1.77;;;;;;;10.71;70.54;100174.13;5051431;28;20382;-80
2024/03/11 08:41:23;;;;;;;0.65;0.65;;;;;;;10.72;70.52;100168.78;5053351;28;20029;-79
2024/03/11 08:43:52;;;;;;;14.75;2.03;;;;;;;10.68;70.34;100175.97;5052801;28;20332;-79
2024/03/11 08:46:18;;;;;;;0.60;0.60;;;;;;;10.67;70.07;100187.47;5044923;28;20421;-79
2024/03/11 08:48:45;;;;;;;2.70;2.60;;;;;;;10.65;69.97;100176.06;5049236;28;20036;-79
2024/03/11 08:51:12;;;;;;;0.38;0.38;;;;;;;10.65;69.73;100184.00;5044197;28;20839;-80
2024/03/11 08:53:39;;;;;;;1.20;1.10;;;;;;;10.63;69.93;100180.53;5049268;28;20579;-80
2024/03/11 08:56:06;;;;;;;0.57;0.57;;;;;;;10.63;70.05;100184.94;5049006;28;20120;-79
2024/03/11 08:58:32;;;;;;;0.57;0.57;;;;;;;10.62;70.33;100178.78;5040391;28;20028;-79
2024/03/11 09:00:59;;;;;;;0.10;0.10;;;;;;;10.61;71.00;100184.16;5047286;28;20030;-79
2024/03/11 09:03:25;;;;;;;0.40;0.40;;;;;;;10.65;70.19;100183.13;5037296;28;20101;-80
2024/03/11 09:05:51;;;;;;;0.30;0.30;;;;;;;10.65;70.90;100185.78;5036549;28;20029;-80
2024/03/11 09:08:18;;;;;;;0.25;0.25;;;;;;;10.64;71.02;100182.28;5038055;28;20022;-81
2024/03/11 09:10:45;;;;;;;0.10;0.10;;;;;;;10.66;70.18;100184.88;5038336;28;20152;-81
2024/03/11 09:13:12;;;;;;;1.10;1.08;;;;;;;10.65;70.47;100188.44;5038072;28;20029;-82
2024/03/11 09:15:38;;;;;;;2.08;1.13;;;;;;;10.65;70.73;100189.31;5037684;28;20024;-80
2024/03/11 09:18:04;;;;;;;0.15;0.15;;;;;;;10.66;70.82;100196.31;5034744;28;20036;-84
2024/03/11 09:20:31;;;;;;;1.02;1.02;;;;;;;10.68;71.15;100191.00;5035214;28;20041;-81
2024/03/11 09:22:57;;;;;;;0.10;0.10;;;;;;;10.71;70.99;100197.97;5040979;28;20093;-77
2024/03/11 09:25:25;;;;;;;0.10;0.10;;;;;;;10.72;70.65;100202.38;5044281;28;20017;-81
2024/03/11 09:27:53;;;;;;;1.67;1.50;;;;;;;10.72;69.93;100197.06;5043285;28;20397;-78
2024/03/11 09:30:20;;;;;;;0.10;0.10;;;;;;;10.67;70.68;100211.31;5042838;28;20550;-77
2024/03/11 09:32:49;;;;;;;0.20;0.20;;;;;;;10.69;70.49;100213.91;5036754;28;20027;-76
2024/03/11 09:35:16;;;;;;;0.65;0.65;;;;;;;10.66;71.24;100212.22;5033714;28;20025;-80
2024/03/11 09:37:46;;;;;;;0.35;0.35;;;;;;;10.71;71.68;100222.69;5046769;28;20488;-78
2024/03/11 09:40:16;;;;;;;0.47;0.47;;;;;;;10.69;71.87;100221.84;5056803;28;20037;-78
2024/03/11 09:42:46;;;;;;;0.20;0.20;;;;;;;10.70;72.33;100228.88;5058260;28;20033;-78
2024/03/11 09:45:17;;;;;;;1.75;1.65;;;;;;;10.71;72.02;100237.72;5058030;28;20043;-77
2024/03/11 09:47:51;;;;;;;0.43;0.43;;;;;;;10.71;72.05;100235.06;5057353;28;20029;-81
2024/03/11 09:50:19;;;;;;;1.95;1.58;;;;;;;10.73;72.08;100241.19;5040627;28;20029;-81
2024/03/11 09:52:47;;;;;;;0.20;0.20;;;;;;;10.75;71.72;100242.00;5056350;28;20087;-80
2024/03/11 09:55:14;;;;;;;0.52;0.52;;;;;;;10.72;72.20;100248.28;5054549;28;20067;-81
2024/03/11 09:57:48;;;;;;;5.40;1.60;;;;;;;10.70;72.64;100249.22;5054848;28;20048;-84
2024/03/11 10:00:15;;;;;;;0.75;0.75;;;;;;;10.68;72.72;100246.63;5057374;28;20116;-83
2024/03/11 10:02:51;;;;;;;0.50;0.50;;;;;;;10.68;72.16;100254.59;5060750;28;20029;-80
2024/03/11 10:05:19;;;;;;;0.65;0.65;;;;;;;10.65;71.76;100259.97;5058831;28;20021;-79
2024/03/11 10:07:52;;;;;;;0.30;0.30;;;;;;;10.65;72.13;100262.59;5051021;28;20029;-82
2024/03/11 10:10:19;;;;;;;0.25;0.25;;;;;;;10.60;72.25;100260.09;5037344;28;20044;-83
2024/03/11 10:12:58;;;;;;;0.85;0.85;;;;;;;10.66;72.44;100269.66;5051165;28;20022;-80
2024/03/11 10:15:27;;;;;;;0.43;0.43;;;;;;;10.61;72.69;100267.13;5030187;28;20477;-79
2024/03/11 10:17:56;;;;;;;2.47;1.00;;;;;;;10.64;72.10;100267.06;5046623;28;20053;-81
2024/03/11 10:20:22;;;;;;;0.17;0.17;;;;;;;10.64;72.60;100279.41;5058084;28;20484;-82
2024/03/11 10:22:49;;;;;;;0.55;0.55;;;;;;;10.63;72.13;100278.56;5053168;28;20033;-83
2024/03/11 10:25:27;;;;;;;4.55;1.02;;;;;;;10.67;72.49;100282.84;5048004;28;20037;-83
2024/03/11 10:27:55;;;;;;;0.20;0.20;;;;;;;10.65;72.36;100284.69;5051888;28;20489;-84
2024/03/11 10:33:01;;;;;;;0.40;0.30;;;;;;;10.67;72.47;100287.28;5150534;27;20363;-79
2024/03/11 10:35:33;;;;;;;1.48;1.38;;;;;;;10.67;72.80;100277.53;5132513;28;20055;-77
2024/03/11 10:38:14;;;;;;;0.68;0.63;;;;;;;10.69;73.26;100277.50;5117235;28;20033;-79
2024/03/11 10:40:44;;;;;;;0.10;0.10;;;;;;;10.63;72.71;100283.84;5096336;28;20258;-79
2024/03/11 10:43:28;;;;;;;0.57;0.57;;;;;;;10.73;72.38;100283.56;5097713;28;20029;-81
2024/03/11 10:45:58;;;;;;;0.10;0.10;;;;;;;10.67;72.64;100274.91;5093699;28;20043;-79
2024/03/11 10:48:29;;;;;;;0.98;0.65;;;;;;;10.71;72.74;100288.94;5097945;28;20433;-81
2024/03/11 10:50:58;;;;;;;0.85;0.85;;;;;;;10.73;73.07;100280.91;5110970;28;20128;-78
2024/03/11 10:53:24;;;;;;;0.88;0.88;;;;;;;10.75;72.66;100285.25;5112527;28;20024;-79
2024/03/11 10:55:55;;;;;;;0.20;0.20;;;;;;;10.77;72.63;100285.25;5105800;28;20028;-79
2024/03/11 10:58:25;;;;;;;1.00;1.00;;;;;;;10.76;72.80;100279.06;5101326;28;20036;-80
2024/03/11 11:00:54;;;;;;;0.30;0.30;;;;;;;10.77;73.06;100278.16;5094690;28;20024;-78
2024/03/11 11:03:23;;;;;;;0.80;0.80;;;;;;;10.80;72.58;100290.44;5091018;28;20031;-78
2024/03/11 11:08:30;;;;;;;0.60;0.60;;;;;;;10.82;72.89;100291.25;5122506;27;20356;-77
2024/03/11 11:10:58;;;;;;;1.60;1.17;;;;;;;10.88;72.36;100287.53;5091847;28;20122;-77
2024/03/11 11:13:29;;;;;;;0.10;0.10;;;;;;;10.90;72.67;100288.38;5096886;28;20043;-77
2024/03/11 11:16:00;;;;;;;0.52;0.52;;;;;;;10.91;72.94;100293.63;5099170;28;20040;-74
2024/03/11 11:18:27;;;;;;;0.75;0.75;;;;;;;10.90;72.82;100294.53;5097356;28;20035;-76
2024/03/11 11:20:55;;;;;;;6.03;0.88;;;;;;;10.88;73.32;100298.16;5098060;28;20081;-76
2024/03/11 11:23:27;;;;;;;1.15;1.08;;;;;;;10.91;72.92;100300.72;5098309;28;20148;-78
2024/03/11 11:25:56;;;;;;;0.45;0.45;;;;;;;10.89;73.05;100303.44;5099216;28;20024;-77
2024/03/11 11:31:26;;;;;;;3.20;2.88;;;;;;;10.96;72.97;100310.25;5119761;27;20348;-77
2024/03/11 11:33:57;;;;;;;1.63;0.70;;;;;;;10.95;72.85;100311.19;5111086;28;20028;-79
2024/03/11 11:41:50;;;;;;;0.57;0.57;;;;;;;11.04;73.10;100307.41;5135950;27;20880;-77
2024/03/11 11:47:14;;;;;;;1.27;0.85;;;;;;;10.98;74.32;100304.94;5134322;27;20773;-76
2024/03/11 11:49:43;;;;;;;1.35;0.82;;;;;;;11.17;74.21;100310.53;5110374;28;20115;-77
2024/03/11 11:52:13;;;;;;;11.85;0.98;;;;;;;11.24;74.17;100308.53;5111170;28;20043;-78
2024/03/11 11:54:40;;;;;;;0.20;0.20;;;;;;;11.27;74.07;100314.63;5105503;28;20028;-79